Aviation Digital Data Service (ADDS)

Output produced by METARs form (1011 UTC 26 August 2016)
found at http://aviationweather.gov/adds/metars/
 
KCAK 260520Z 2606/2706 30006KT P6SM SCT045 
     FM260900 28004KT 6SM BR SCT080 
     TEMPO 2609/2613 4SM BR SCT008 BKN080 
     FM261400 32006KT P6SM SCT250 
     FM270000 34004KT P6SM SCT250